createdAt,value
2023-02-11T00:00:35.380Z,1010.97
2023-02-11T00:01:37.017Z,1010.96
2023-02-11T00:02:38.741Z,1010.99
2023-02-11T00:03:40.586Z,1011.02
2023-02-11T00:04:42.246Z,1010.97
2023-02-11T00:05:43.942Z,1010.98
2023-02-11T00:06:45.736Z,1010.98
2023-02-11T00:07:47.457Z,1010.91
2023-02-11T00:08:49.155Z,1010.99
2023-02-11T00:09:51.179Z,1010.97
2023-02-11T00:10:52.628Z,1010.99
2023-02-11T00:11:54.389Z,1010.99
2023-02-11T00:12:56.106Z,1010.93
2023-02-11T00:13:57.817Z,1010.95
2023-02-11T00:14:59.728Z,1010.89
2023-02-11T00:16:01.293Z,1010.81
2023-02-11T00:17:03.084Z,1010.83
2023-02-11T00:18:04.762Z,1010.8
2023-02-11T00:19:06.625Z,1010.81
2023-02-11T00:20:08.433Z,1010.82
2023-02-11T00:21:31.062Z,1010.84
2023-02-11T00:22:32.870Z,1010.84
2023-02-11T00:23:34.532Z,1010.83
2023-02-11T00:24:36.293Z,1010.85
2023-02-11T00:25:38.019Z,1010.8
2023-02-11T00:26:39.719Z,1010.76
2023-02-11T00:27:41.466Z,1010.7
2023-02-11T00:28:43.198Z,1010.8
2023-02-11T00:29:44.970Z,1010.85
2023-02-11T00:30:46.899Z,1010.84
2023-02-11T00:31:48.607Z,1010.82
2023-02-11T00:32:50.136Z,1010.83
2023-02-11T00:33:51.860Z,1010.84
2023-02-11T00:34:53.622Z,1010.86
2023-02-11T00:35:55.345Z,1010.78
2023-02-11T00:36:57.098Z,1010.8
2023-02-11T00:37:58.801Z,1010.74
2023-02-11T00:39:00.522Z,1010.68
2023-02-11T00:40:04.459Z,1010.79
2023-02-11T00:41:04.046Z,1010.76
2023-02-11T00:42:05.721Z,1010.77
2023-02-11T00:43:07.509Z,1010.72
2023-02-11T00:44:09.210Z,1010.78
2023-02-11T00:45:10.932Z,1010.72
2023-02-11T00:46:12.797Z,1010.75
2023-02-11T00:47:14.395Z,1010.68
2023-02-11T00:48:16.134Z,1010.64
2023-02-11T00:49:17.874Z,1010.76
2023-02-11T00:50:19.591Z,1010.71
2023-02-11T00:51:21.341Z,1010.76
2023-02-11T00:52:23.064Z,1010.73
2023-02-11T00:53:24.784Z,1010.63
2023-02-11T00:54:29.683Z,1010.7
2023-02-11T00:55:28.290Z,1010.65
2023-02-11T00:56:30.011Z,1010.61
2023-02-11T00:57:31.727Z,1010.59
2023-02-11T00:58:33.486Z,1010.62
2023-02-11T00:59:35.214Z,1010.66
2023-02-11T01:00:36.933Z,1010.64
2023-02-11T01:01:38.770Z,1010.65
2023-02-11T01:02:40.402Z,1010.61
2023-02-11T01:03:42.133Z,1010.65
2023-02-11T01:04:43.876Z,1010.65
2023-02-11T01:05:45.663Z,1010.57
2023-02-11T01:06:47.336Z,1010.59
2023-02-11T01:07:49.102Z,1010.57
2023-02-11T01:08:50.804Z,1010.63
2023-02-11T01:09:52.560Z,1010.58
2023-02-11T01:10:54.299Z,1010.58
2023-02-11T01:11:56.015Z,1010.56
2023-02-11T01:12:57.777Z,1010.61
2023-02-11T01:13:59.519Z,1010.58
2023-02-11T01:15:01.241Z,1010.56
2023-02-11T01:16:03.050Z,1010.54
2023-02-11T01:17:04.698Z,1010.55
2023-02-11T01:18:06.425Z,1010.55
2023-02-11T01:19:08.167Z,1010.52
2023-02-11T01:20:09.911Z,1010.56
2023-02-11T01:21:11.635Z,1010.54
2023-02-11T01:22:13.369Z,1010.51
2023-02-11T01:23:15.109Z,1010.5
2023-02-11T01:24:16.871Z,1010.54
2023-02-11T01:25:18.561Z,1010.52
2023-02-11T01:26:20.406Z,1010.57
2023-02-11T01:27:22.068Z,1010.56
2023-02-11T01:28:23.838Z,1010.58
2023-02-11T01:29:25.497Z,1010.53
2023-02-11T01:30:27.231Z,1010.5
2023-02-11T01:31:29.014Z,1010.49
2023-02-11T01:32:30.706Z,1010.38
2023-02-11T01:33:32.484Z,1010.43
2023-02-11T01:34:34.183Z,1010.39
2023-02-11T01:35:35.891Z,1010.37
2023-02-11T01:36:37.666Z,1010.34
2023-02-11T01:37:39.377Z,1010.32
2023-02-11T01:38:41.426Z,1010.38
2023-02-11T01:39:42.866Z,1010.34
2023-02-11T01:40:44.607Z,1010.32
2023-02-11T01:41:46.314Z,1010.35
2023-02-11T01:42:50.894Z,1010.41
2023-02-11T01:43:49.802Z,1010.45
2023-02-11T01:44:51.534Z,1010.28
2023-02-11T01:45:53.351Z,1010.34
2023-02-11T01:46:54.995Z,1010.3
2023-02-11T01:47:56.726Z,1010.33
2023-02-11T01:48:58.639Z,1010.31
2023-02-11T01:50:00.185Z,1010.32
2023-02-11T01:51:01.916Z,1010.27
2023-02-11T01:52:03.683Z,1010.31
2023-02-11T01:53:05.375Z,1010.28
2023-02-11T01:54:07.112Z,1010.27
2023-02-11T01:55:08.870Z,1010.26
2023-02-11T01:56:10.612Z,1010.25
2023-02-11T01:57:12.324Z,1010.22
2023-02-11T01:58:14.076Z,1010.21
2023-02-11T01:59:15.806Z,1010.21
2023-02-11T02:00:17.530Z,1010.2
2023-02-11T02:01:19.327Z,1010.21
2023-02-11T02:02:20.979Z,1010.14
2023-02-11T02:03:22.832Z,1010.13
2023-02-11T02:04:24.456Z,1010.11
2023-02-11T02:05:26.196Z,1010.09
2023-02-11T02:06:27.923Z,1010.13
2023-02-11T02:07:29.679Z,1010.11
2023-02-11T02:08:31.400Z,1010.14
2023-02-11T02:09:33.146Z,1010.13
2023-02-11T02:10:34.909Z,1010.04
2023-02-11T02:11:36.589Z,1009.99
2023-02-11T02:12:38.383Z,1010.03
2023-02-11T02:13:40.154Z,1009.98
2023-02-11T02:14:41.835Z,1010.03
2023-02-11T02:15:43.565Z,1010.04
2023-02-11T02:16:45.254Z,1010.04
2023-02-11T02:17:46.982Z,1010.01
2023-02-11T02:18:48.723Z,1010.02
2023-02-11T02:19:50.472Z,1010
2023-02-11T02:20:52.197Z,1010.04
2023-02-11T02:21:53.931Z,1010.03
2023-02-11T02:22:55.657Z,1010.04
2023-02-11T02:23:57.401Z,1010.01
2023-02-11T02:24:59.137Z,1009.97
2023-02-11T02:26:00.875Z,1009.94
2023-02-11T02:27:02.625Z,1009.91
2023-02-11T02:28:04.365Z,1009.8
2023-02-11T02:29:06.080Z,1009.87
2023-02-11T02:30:07.815Z,1009.84
2023-02-11T02:31:09.714Z,1009.8
2023-02-11T02:32:11.259Z,1009.78
2023-02-11T02:33:21.881Z,1009.79
2023-02-11T02:34:14.744Z,1009.75
2023-02-11T02:35:16.479Z,1009.82
2023-02-11T02:36:18.191Z,1009.77
2023-02-11T02:37:19.955Z,1009.79
2023-02-11T02:38:21.680Z,1009.76
2023-02-11T02:39:23.414Z,1009.76
2023-02-11T02:40:25.136Z,1009.8
2023-02-11T02:41:26.910Z,1009.82
2023-02-11T02:42:28.610Z,1009.82
2023-02-11T02:43:30.351Z,1009.76
2023-02-11T02:44:32.072Z,1009.79
2023-02-11T02:45:33.950Z,1009.82
2023-02-11T02:46:35.584Z,1009.71
2023-02-11T02:47:37.302Z,1009.81
2023-02-11T02:48:39.012Z,1009.83
2023-02-11T02:49:40.762Z,1009.85
2023-02-11T02:50:42.480Z,1009.88
2023-02-11T02:51:44.241Z,1009.89
2023-02-11T02:52:46.002Z,1009.92
2023-02-11T02:53:47.668Z,1009.94
2023-02-11T02:54:49.424Z,1009.95
2023-02-11T02:55:51.595Z,1009.96
2023-02-11T02:56:53.038Z,1010.04
2023-02-11T02:57:54.614Z,1010.05
2023-02-11T02:58:56.345Z,1009.98
2023-02-11T02:59:58.110Z,1009.96
2023-02-11T03:00:59.951Z,1009.96
2023-02-11T03:02:01.730Z,1009.95
2023-02-11T03:03:03.301Z,1009.94
2023-02-11T03:04:05.185Z,1009.89
2023-02-11T03:05:06.792Z,1010.03
2023-02-11T03:06:08.514Z,1010.02
2023-02-11T03:07:10.244Z,1009.96
2023-02-11T03:08:12.011Z,1009.95
2023-02-11T03:09:13.706Z,1009.97
2023-02-11T03:10:15.469Z,1009.89
2023-02-11T03:11:17.182Z,1009.85
2023-02-11T03:12:18.930Z,1009.85
2023-02-11T03:13:20.653Z,1009.73
2023-02-11T03:14:22.365Z,1009.74
2023-02-11T03:15:24.130Z,1009.77
2023-02-11T03:16:25.925Z,1009.76
2023-02-11T03:17:27.577Z,1009.75
2023-02-11T03:18:29.329Z,1009.74
2023-02-11T03:19:31.039Z,1009.68
2023-02-11T03:20:32.846Z,1009.67
2023-02-11T03:21:34.522Z,1009.68
2023-02-11T03:22:36.248Z,1009.67
2023-02-11T03:23:37.985Z,1009.73
2023-02-11T03:24:39.726Z,1009.76
2023-02-11T03:25:41.458Z,1009.76
2023-02-11T03:26:43.206Z,1009.77
2023-02-11T03:27:44.924Z,1009.68
2023-02-11T03:28:46.636Z,1009.69
2023-02-11T03:29:48.408Z,1009.71
2023-02-11T03:30:50.194Z,1009.68
2023-02-11T03:31:52.141Z,1009.66
2023-02-11T03:32:53.619Z,1009.67
2023-02-11T03:33:55.342Z,1009.64
2023-02-11T03:34:57.092Z,1009.64
2023-02-11T03:35:58.816Z,1009.66
2023-02-11T03:37:00.548Z,1009.68
2023-02-11T03:38:02.283Z,1009.7
2023-02-11T03:39:04.097Z,1009.64
2023-02-11T03:40:05.733Z,1009.69
2023-02-11T03:41:07.461Z,1009.68
2023-02-11T03:42:09.185Z,1009.65
2023-02-11T03:43:10.956Z,1009.61
2023-02-11T03:44:12.664Z,1009.64
2023-02-11T03:45:14.416Z,1009.64
2023-02-11T03:46:16.207Z,1009.58
2023-02-11T03:47:17.874Z,1009.53
2023-02-11T03:48:19.590Z,1009.49
2023-02-11T03:49:21.330Z,1009.53
2023-02-11T03:50:23.063Z,1009.49
2023-02-11T03:51:24.816Z,1009.48
2023-02-11T03:52:26.540Z,1009.53
2023-02-11T03:53:28.300Z,1009.52
2023-02-11T03:54:30.011Z,1009.49
2023-02-11T03:55:31.729Z,1009.42
2023-02-11T03:56:33.474Z,1009.41
2023-02-11T03:57:35.210Z,1009.31
2023-02-11T03:58:36.954Z,1009.26
2023-02-11T03:59:38.703Z,1009.25
2023-02-11T04:00:40.409Z,1009.22
2023-02-11T04:01:42.219Z,1009.15
2023-02-11T04:02:44.009Z,1009.11
2023-02-11T04:03:45.803Z,1009.02
2023-02-11T04:04:47.352Z,1008.98
2023-02-11T04:05:49.443Z,1008.96
2023-02-11T04:06:50.867Z,1008.94
2023-02-11T04:07:52.540Z,1008.88
2023-02-11T04:08:54.299Z,1008.93
2023-02-11T04:09:56.012Z,1008.9
2023-02-11T04:10:57.764Z,1008.87
2023-02-11T04:11:59.479Z,1008.87
2023-02-11T04:13:01.231Z,1008.84
2023-02-11T04:14:02.967Z,1008.84
2023-02-11T04:15:04.701Z,1008.83
2023-02-11T04:16:06.473Z,1008.78
2023-02-11T04:17:08.153Z,1008.8
2023-02-11T04:18:09.884Z,1008.76
2023-02-11T04:19:11.606Z,1008.72
2023-02-11T04:20:13.366Z,1008.71
2023-02-11T04:21:15.093Z,1008.7
2023-02-11T04:22:16.867Z,1008.7
2023-02-11T04:23:18.570Z,1008.76
2023-02-11T04:24:20.301Z,1008.83
2023-02-11T04:25:22.020Z,1008.87
2023-02-11T04:26:23.960Z,1008.98
2023-02-11T04:27:25.477Z,1008.98
2023-02-11T04:28:27.243Z,1009
2023-02-11T04:29:29.116Z,1009.08
2023-02-11T04:30:30.716Z,1009.14
2023-02-11T04:31:32.421Z,1009.18
2023-02-11T04:32:34.158Z,1009.2
2023-02-11T04:33:35.901Z,1009.24
2023-02-11T04:34:37.621Z,1009.19
2023-02-11T04:35:39.355Z,1009.21
2023-02-11T04:36:41.099Z,1009.25
2023-02-11T04:37:42.828Z,1009.26
2023-02-11T04:38:44.570Z,1009.3
2023-02-11T04:39:46.313Z,1009.29
2023-02-11T04:40:48.046Z,1009.28
2023-02-11T04:41:49.760Z,1009.26
2023-02-11T04:42:51.515Z,1009.28
2023-02-11T04:43:53.236Z,1009.22
2023-02-11T04:44:54.987Z,1009.27
2023-02-11T04:45:56.751Z,1009.22
2023-02-11T04:46:58.432Z,1009.26
2023-02-11T04:48:00.161Z,1009.24
2023-02-11T04:49:01.917Z,1009.27
2023-02-11T04:50:03.657Z,1009.32
2023-02-11T04:51:05.420Z,1009.32
2023-02-11T04:52:07.107Z,1009.33
2023-02-11T04:53:08.884Z,1009.34
2023-02-11T04:54:10.552Z,1009.34
2023-02-11T04:55:12.308Z,1009.32
2023-02-11T04:56:14.040Z,1009.31
2023-02-11T04:57:15.780Z,1009.31
2023-02-11T04:58:17.501Z,1009.35
2023-02-11T04:59:19.250Z,1009.37
2023-02-11T05:00:20.985Z,1009.29
2023-02-11T05:01:22.744Z,1009.33
2023-02-11T05:02:24.500Z,1009.27
2023-02-11T05:03:26.170Z,1009.19
2023-02-11T05:04:27.995Z,1009.17
2023-02-11T05:05:29.645Z,1009.22
2023-02-11T05:06:31.392Z,1009.12
2023-02-11T05:07:33.126Z,1009.14
2023-02-11T05:08:34.848Z,1009.19
2023-02-11T05:09:36.593Z,1009.16
2023-02-11T05:10:38.320Z,1009.09
2023-02-11T05:11:40.058Z,1009.16
2023-02-11T05:12:41.776Z,1009.16
2023-02-11T05:13:43.500Z,1009.23
2023-02-11T05:14:45.256Z,1009.14
2023-02-11T05:15:46.982Z,1009.14
2023-02-11T05:16:48.812Z,1009.09
2023-02-11T05:17:50.470Z,1009.12
2023-02-11T05:18:52.724Z,1009.09
2023-02-11T05:19:53.921Z,1009.07
2023-02-11T05:20:55.646Z,1009
2023-02-11T05:22:03.043Z,1008.98
2023-02-11T05:22:59.111Z,1008.95
2023-02-11T05:24:00.842Z,1008.97
2023-02-11T05:25:02.597Z,1008.91
2023-02-11T05:26:04.319Z,1008.88
2023-02-11T05:27:06.047Z,1008.78
2023-02-11T05:28:07.826Z,1008.8
2023-02-11T05:29:09.510Z,1008.79
2023-02-11T05:30:11.302Z,1008.76
2023-02-11T05:31:13.051Z,1008.78
2023-02-11T05:32:14.705Z,1008.73
2023-02-11T05:33:16.444Z,1008.74
2023-02-11T05:34:18.205Z,1008.77
2023-02-11T05:35:19.919Z,1008.79
2023-02-11T05:36:21.671Z,1008.82
2023-02-11T05:37:23.432Z,1008.8
2023-02-11T05:38:25.114Z,1008.78
2023-02-11T05:39:26.871Z,1008.83
2023-02-11T05:40:28.605Z,1008.78
2023-02-11T05:41:30.326Z,1008.74
2023-02-11T05:42:32.044Z,1008.77
2023-02-11T05:43:33.792Z,1008.75
2023-02-11T05:44:35.548Z,1008.75
2023-02-11T05:45:37.259Z,1008.85
2023-02-11T05:46:39.077Z,1008.92
2023-02-11T05:47:40.727Z,1008.91
2023-02-11T05:48:42.464Z,1008.95
2023-02-11T05:49:44.219Z,1008.97
2023-02-11T05:50:45.956Z,1008.92
2023-02-11T05:51:47.655Z,1009.03
2023-02-11T05:52:49.399Z,1008.99
2023-02-11T05:53:51.140Z,1009.01
2023-02-11T05:54:52.891Z,1009.06
2023-02-11T05:55:54.594Z,1009.03
2023-02-11T05:56:56.339Z,1009.07
2023-02-11T05:57:58.076Z,1009.05
2023-02-11T05:58:59.788Z,1009.12
2023-02-11T06:00:01.576Z,1009.13
2023-02-11T06:01:03.272Z,1009.15
2023-02-11T06:02:05.003Z,1009.06
2023-02-11T06:03:06.736Z,1009.15
2023-02-11T06:04:08.656Z,1009.14
2023-02-11T06:05:10.224Z,1009.1
2023-02-11T06:06:11.963Z,1009.1
2023-02-11T06:07:13.691Z,1009.06
2023-02-11T06:08:15.403Z,1009.04
2023-02-11T06:09:17.208Z,1009.03
2023-02-11T06:10:18.893Z,1009.03
2023-02-11T06:11:20.697Z,1009.08
2023-02-11T06:12:22.339Z,1009.04
2023-02-11T06:13:24.111Z,1009.02
2023-02-11T06:14:25.805Z,1009.07
2023-02-11T06:15:27.545Z,1009.05
2023-02-11T06:19:25.254Z,1009.18
2023-02-11T06:20:27.036Z,1009.14
2023-02-11T06:21:43.024Z,1009.17
2023-02-11T06:22:30.464Z,1009.15
2023-02-11T06:23:32.189Z,1009.18
2023-02-11T06:24:58.633Z,1009.17
2023-02-11T06:25:35.638Z,1009.16
2023-02-11T06:26:37.365Z,1009.21
2023-02-11T06:27:39.111Z,1009.19
2023-02-11T06:28:42.061Z,1009.13
2023-02-11T06:29:42.611Z,1009.17
2023-02-11T06:30:44.330Z,1009.22
2023-02-11T06:31:46.230Z,1009.17
2023-02-11T06:32:48.031Z,1009.22
2023-02-11T06:33:49.515Z,1009.21
2023-02-11T06:34:51.268Z,1009.24
2023-02-11T06:35:53.169Z,1009.27
2023-02-11T06:36:54.706Z,1009.29
2023-02-11T06:37:56.436Z,1009.31
2023-02-11T06:38:58.173Z,1009.33
2023-02-11T06:39:59.931Z,1009.37
2023-02-11T06:41:01.643Z,1009.35
2023-02-11T06:42:03.388Z,1009.32
2023-02-11T06:43:05.118Z,1009.33
2023-02-11T06:44:06.882Z,1009.34
2023-02-11T06:45:08.592Z,1009.43
2023-02-11T06:46:11.826Z,1009.4
2023-02-11T06:47:12.051Z,1009.4
2023-02-11T06:48:13.798Z,1009.42
2023-02-11T06:49:15.535Z,1009.37
2023-02-11T06:50:17.263Z,1009.37
2023-02-11T06:51:18.994Z,1009.37
2023-02-11T06:52:20.728Z,1009.41
2023-02-11T06:53:22.457Z,1009.39
2023-02-11T06:54:24.316Z,1009.42
2023-02-11T06:55:25.949Z,1009.42
2023-02-11T06:56:27.719Z,1009.43
2023-02-11T06:57:29.383Z,1009.4
2023-02-11T06:58:31.137Z,1009.4
2023-02-11T06:59:32.861Z,1009.32
2023-02-11T07:00:34.606Z,1009.38
2023-02-11T07:01:36.380Z,1009.34
2023-02-11T07:02:38.070Z,1009.34
2023-02-11T07:03:39.828Z,1009.31
2023-02-11T07:04:41.534Z,1009.32
2023-02-11T07:05:43.272Z,1009.39
2023-02-11T07:06:44.991Z,1009.36
2023-02-11T07:07:46.730Z,1009.35
2023-02-11T07:08:48.481Z,1009.32
2023-02-11T07:09:50.234Z,1009.26
2023-02-11T07:10:51.923Z,1009.23
2023-02-11T07:11:53.692Z,1009.15
2023-02-11T07:12:57.761Z,1009.19
2023-02-11T07:13:57.166Z,1009.15
2023-02-11T07:14:58.891Z,1009.19
2023-02-11T07:16:00.662Z,1009.18
2023-02-11T07:17:02.342Z,1009.15
2023-02-11T07:18:04.077Z,1009.17
2023-02-11T07:19:05.790Z,1009.13
2023-02-11T07:20:07.538Z,1009.15
2023-02-11T07:21:09.296Z,1009.15
2023-02-11T07:22:11.085Z,1009.12
2023-02-11T07:23:12.780Z,1009.12
2023-02-11T07:24:14.473Z,1009.14
2023-02-11T07:25:16.223Z,1009.03
2023-02-11T07:26:17.946Z,1009.12
2023-02-11T07:27:19.670Z,1009.17
2023-02-11T07:28:21.423Z,1009.16
2023-02-11T07:29:23.146Z,1009.18
2023-02-11T07:30:24.894Z,1009.15
2023-02-11T07:31:26.858Z,1009.2
2023-02-11T07:32:28.456Z,1009.22
2023-02-11T07:33:30.081Z,1009.24
2023-02-11T07:34:31.942Z,1009.21
2023-02-11T07:35:33.539Z,1009.22
2023-02-11T07:36:35.281Z,1009.22
2023-02-11T07:37:37.036Z,1009.24
2023-02-11T07:38:38.762Z,1009.27
2023-02-11T07:39:40.513Z,1009.09
2023-02-11T07:40:42.211Z,1009.24
2023-02-11T07:41:43.944Z,1009.24
2023-02-11T07:42:45.672Z,1009.24
2023-02-11T07:43:47.445Z,1009.27
2023-02-11T07:44:50.564Z,1009.27
2023-02-11T07:45:51.155Z,1009.26
2023-02-11T07:46:52.662Z,1009.26
2023-02-11T07:47:54.371Z,1009.36
2023-02-11T07:48:56.102Z,1009.37
2023-02-11T07:49:57.829Z,1009.41
2023-02-11T07:50:59.581Z,1009.45
2023-02-11T07:52:01.292Z,1009.43
2023-02-11T07:53:03.040Z,1009.48
2023-02-11T07:54:04.761Z,1009.49
2023-02-11T07:55:06.493Z,1009.51
2023-02-11T07:56:08.246Z,1009.51
2023-02-11T07:57:09.994Z,1009.5
2023-02-11T07:58:11.695Z,1009.5
2023-02-11T07:59:13.441Z,1009.48
2023-02-11T08:00:15.222Z,1009.44
2023-02-11T08:01:17.020Z,1009.48
2023-02-11T08:02:18.741Z,1009.53
2023-02-11T08:03:20.364Z,1009.5
2023-02-11T08:04:22.097Z,1009.49
2023-02-11T08:05:23.821Z,1009.48
2023-02-11T08:06:25.636Z,1009.52
2023-02-11T08:07:27.298Z,1009.52
2023-02-11T08:08:29.062Z,1009.49
2023-02-11T08:09:32.815Z,1009.54
2023-02-11T08:10:32.534Z,1009.52
2023-02-11T08:11:34.267Z,1009.52
2023-02-11T08:12:35.983Z,1009.5
2023-02-11T08:13:37.704Z,1009.47
2023-02-11T08:14:39.426Z,1009.46
2023-02-11T08:15:41.185Z,1009.47
2023-02-11T08:16:42.973Z,1009.47
2023-02-11T08:17:44.640Z,1009.43
2023-02-11T08:18:46.384Z,1009.45
2023-02-11T08:19:48.091Z,1009.49
2023-02-11T08:20:50.097Z,1009.48
2023-02-11T08:21:51.565Z,1009.49
2023-02-11T08:22:53.300Z,1009.51
2023-02-11T08:23:55.043Z,1009.49
2023-02-11T08:24:56.771Z,1009.43
2023-02-11T08:25:58.525Z,1009.37
2023-02-11T08:27:00.238Z,1009.49
2023-02-11T08:28:02.012Z,1009.47
2023-02-11T08:29:03.804Z,1009.55
2023-02-11T08:30:05.439Z,1009.54
2023-02-11T08:31:07.225Z,1009.54
2023-02-11T08:32:09.070Z,1009.57
2023-02-11T08:33:10.640Z,1009.58
2023-02-11T08:34:12.368Z,1009.59
2023-02-11T08:35:14.126Z,1009.62
2023-02-11T08:36:15.847Z,1009.62
2023-02-11T08:37:17.579Z,1009.53
2023-02-11T08:38:19.333Z,1009.62
2023-02-11T08:39:21.264Z,1009.61
2023-02-11T08:40:22.808Z,1009.6
2023-02-11T08:41:24.510Z,1009.64
2023-02-11T08:42:26.266Z,1009.68
2023-02-11T08:43:27.967Z,1009.68
2023-02-11T08:44:29.801Z,1009.66
2023-02-11T08:45:31.487Z,1009.73
2023-02-11T08:46:33.241Z,1009.62
2023-02-11T08:47:35.112Z,1009.71
2023-02-11T08:48:36.662Z,1009.68
2023-02-11T08:49:38.391Z,1009.68
2023-02-11T08:50:40.150Z,1009.64
2023-02-11T08:51:41.849Z,1009.7
2023-02-11T08:52:43.589Z,1009.66
2023-02-11T08:53:45.315Z,1009.7
2023-02-11T08:54:47.080Z,1009.74
2023-02-11T08:55:48.974Z,1009.63
2023-02-11T08:56:50.514Z,1009.63
2023-02-11T08:57:52.262Z,1009.61
2023-02-11T08:58:53.970Z,1009.61
2023-02-11T08:59:55.753Z,1009.6
2023-02-11T09:00:57.529Z,1009.6
2023-02-11T09:01:59.287Z,1009.61
2023-02-11T09:03:00.933Z,1009.66
2023-02-11T09:04:02.679Z,1009.62
2023-02-11T09:05:04.389Z,1009.68
2023-02-11T09:06:06.139Z,1009.64
2023-02-11T09:07:07.861Z,1009.64
2023-02-11T09:08:09.606Z,1009.67
2023-02-11T09:09:11.347Z,1009.64
2023-02-11T09:10:13.075Z,1009.69
2023-02-11T09:11:14.794Z,1009.75
2023-02-11T09:12:16.764Z,1009.77
2023-02-11T09:13:18.279Z,1009.69
2023-02-11T09:14:19.984Z,1009.79
2023-02-11T09:15:21.721Z,1009.82
2023-02-11T09:16:23.495Z,1009.82
2023-02-11T09:17:25.198Z,1009.82
2023-02-11T09:18:26.945Z,1009.81
2023-02-11T09:19:28.667Z,1009.83
2023-02-11T09:20:30.420Z,1009.81
2023-02-11T09:21:32.192Z,1009.83
2023-02-11T09:22:33.881Z,1009.82
2023-02-11T09:23:35.601Z,1009.83
2023-02-11T09:24:37.327Z,1009.83
2023-02-11T09:25:39.078Z,1009.77
2023-02-11T09:26:40.794Z,1009.83
2023-02-11T09:27:42.544Z,1009.77
2023-02-11T09:28:44.287Z,1009.82
2023-02-11T09:29:46.000Z,1009.86
2023-02-11T09:30:47.926Z,1009.85
2023-02-11T09:31:49.649Z,1009.92
2023-02-11T09:32:51.215Z,1009.92
2023-02-11T09:33:52.949Z,1009.93
2023-02-11T09:34:54.708Z,1009.93
2023-02-11T09:35:56.408Z,1009.93
2023-02-11T09:36:58.141Z,1009.95
2023-02-11T09:37:59.873Z,1009.97
2023-02-11T09:39:01.607Z,1010.04
2023-02-11T09:40:03.382Z,1009.96
2023-02-11T09:41:05.081Z,1010.1
2023-02-11T09:42:06.829Z,1010.07
2023-02-11T09:43:08.544Z,1010.1
2023-02-11T09:44:10.370Z,1010.15
2023-02-11T09:45:12.008Z,1010.14
2023-02-11T09:46:13.849Z,1010.2
2023-02-11T09:47:15.482Z,1010.17
2023-02-11T09:48:17.230Z,1010.24
2023-02-11T09:49:18.964Z,1010.26
2023-02-11T09:50:20.680Z,1010.24
2023-02-11T09:51:22.434Z,1010.23
2023-02-11T09:52:24.161Z,1010.24
2023-02-11T09:53:25.993Z,1010.22
2023-02-11T09:54:27.635Z,1010.28
2023-02-11T09:55:29.369Z,1010.26
2023-02-11T09:56:31.092Z,1010.3
2023-02-11T09:57:32.827Z,1010.29
2023-02-11T09:58:34.557Z,1010.3
2023-02-11T09:59:36.300Z,1010.29
2023-02-11T10:00:38.069Z,1010.3
2023-02-11T10:01:39.823Z,1010.3
2023-02-11T10:02:41.512Z,1010.35
2023-02-11T10:03:43.252Z,1010.34
2023-02-11T10:04:45.053Z,1010.34
2023-02-11T10:05:46.746Z,1010.34
2023-02-11T10:06:48.447Z,1010.35
2023-02-11T10:07:50.165Z,1010.34
2023-02-11T10:08:51.952Z,1010.32
2023-02-11T10:09:53.632Z,1010.31
2023-02-11T10:10:55.370Z,1010.26
2023-02-11T10:11:57.131Z,1010.34
2023-02-11T10:12:58.857Z,1010.33
2023-02-11T10:14:00.604Z,1010.32
2023-02-11T10:15:02.327Z,1010.3
2023-02-11T10:16:04.097Z,1010.31
2023-02-11T10:17:05.929Z,1010.31
2023-02-11T10:18:07.496Z,1010.24
2023-02-11T10:19:09.269Z,1010.33
2023-02-11T10:20:10.984Z,1010.34
2023-02-11T10:21:12.722Z,1010.31
2023-02-11T10:22:14.460Z,1010.32
2023-02-11T10:23:16.186Z,1010.32
2023-02-11T10:24:18.086Z,1010.27
2023-02-11T10:25:19.661Z,1010.24
2023-02-11T10:26:21.396Z,1010.26
2023-02-11T10:27:23.156Z,1010.25
2023-02-11T10:28:24.983Z,1010.19
2023-02-11T10:29:26.602Z,1010.24
2023-02-11T10:30:28.372Z,1010.22
2023-02-11T10:31:30.169Z,1010.23
2023-02-11T10:32:31.804Z,1010.24
2023-02-11T10:33:33.516Z,1010.27
2023-02-11T10:34:35.249Z,1010.25
2023-02-11T10:35:37.000Z,1010.29
2023-02-11T10:36:38.718Z,1010.25
2023-02-11T10:37:42.398Z,1010.21
2023-02-11T10:38:42.282Z,1010.19
2023-02-11T10:39:43.926Z,1010.25
2023-02-11T10:40:45.666Z,1010.22
2023-02-11T10:41:47.400Z,1010.26
2023-02-11T10:42:49.165Z,1010.19
2023-02-11T10:43:50.873Z,1010.18
2023-02-11T10:44:52.618Z,1010.21
2023-02-11T10:45:54.343Z,1010.25
2023-02-11T10:46:56.074Z,1010.24
2023-02-11T10:47:57.812Z,1010.19
2023-02-11T10:48:59.531Z,1010.2
2023-02-11T10:50:01.310Z,1010.21
2023-02-11T10:51:02.982Z,1010.23
2023-02-11T10:52:04.737Z,1010.2
2023-02-11T10:53:06.473Z,1010.22
2023-02-11T10:54:08.227Z,1010.16
2023-02-11T10:55:09.956Z,1010.22
2023-02-11T10:56:11.665Z,1010.26
2023-02-11T10:57:13.410Z,1010.29
2023-02-11T10:58:15.139Z,1010.26
2023-02-11T10:59:19.054Z,1010.22
2023-02-11T11:00:18.703Z,1010.23
2023-02-11T11:01:24.790Z,1010.21
2023-02-11T11:02:22.107Z,1010.21
2023-02-11T11:03:23.822Z,1010.18
2023-02-11T11:04:25.590Z,1010.09
2023-02-11T11:05:27.296Z,1010.08
2023-02-11T11:06:29.031Z,1010.06
2023-02-11T11:07:30.746Z,1010.09
2023-02-11T11:08:32.491Z,1010.03
2023-02-11T11:09:34.269Z,1010.06
2023-02-11T11:10:35.971Z,1010.06
2023-02-11T11:11:37.535Z,1010.02
2023-02-11T11:12:41.142Z,1010.03
2023-02-11T11:13:40.992Z,1010.06
2023-02-11T11:14:42.713Z,1010.02
2023-02-11T11:15:44.816Z,1010.03
2023-02-11T11:16:46.188Z,1010.09
2023-02-11T11:17:47.960Z,1010.06
2023-02-11T11:18:49.670Z,1010.06
2023-02-11T11:19:51.401Z,1009.95
2023-02-11T11:20:53.244Z,1010.01
2023-02-11T11:21:54.859Z,1009.97
2023-02-11T11:22:56.605Z,1009.96
2023-02-11T11:23:58.335Z,1009.94
2023-02-11T11:25:00.061Z,1009.95
2023-02-11T11:26:01.811Z,1009.93
2023-02-11T11:27:03.543Z,1009.91
2023-02-11T11:28:05.354Z,1009.95
2023-02-11T11:29:07.017Z,1009.99
2023-02-11T11:30:08.772Z,1009.98
2023-02-11T11:31:10.624Z,1009.99
2023-02-11T11:32:12.281Z,1010
2023-02-11T11:33:13.940Z,1009.97
2023-02-11T11:34:15.664Z,1009.96
2023-02-11T11:35:17.405Z,1009.91
2023-02-11T11:36:19.151Z,1009.92
2023-02-11T11:37:20.884Z,1009.98
2023-02-11T11:38:22.592Z,1009.97
2023-02-11T11:39:24.369Z,1010.03
2023-02-11T11:40:26.103Z,1009.95
2023-02-11T11:41:27.813Z,1009.89
2023-02-11T11:42:29.532Z,1009.93
2023-02-11T11:43:31.275Z,1009.86
2023-02-11T11:44:33.025Z,1009.84
2023-02-11T11:45:34.734Z,1009.93
2023-02-11T11:46:36.505Z,1009.95
2023-02-11T11:47:38.209Z,1009.93
2023-02-11T11:48:40.088Z,1009.9
2023-02-11T11:49:41.669Z,1009.89
2023-02-11T11:50:43.423Z,1009.88
2023-02-11T11:51:45.152Z,1009.85
2023-02-11T11:52:46.873Z,1009.88
2023-02-11T11:53:48.614Z,1009.88
2023-02-11T11:54:50.340Z,1009.95
2023-02-11T11:55:52.079Z,1009.96
2023-02-11T11:56:53.823Z,1009.96
2023-02-11T11:57:55.558Z,1009.94
2023-02-11T11:58:57.291Z,1009.95
2023-02-11T11:59:59.042Z,1009.95
2023-02-11T12:01:00.770Z,1010.01
2023-02-11T12:02:02.584Z,1010
2023-02-11T12:03:04.285Z,1009.98
2023-02-11T12:04:05.953Z,1010.01
2023-02-11T12:05:07.692Z,1009.99
2023-02-11T12:06:09.402Z,1010.08
2023-02-11T12:07:11.172Z,1010.01
2023-02-11T12:08:12.880Z,1009.99
2023-02-11T12:09:14.614Z,1010
2023-02-11T12:10:16.361Z,1010.04
2023-02-11T12:11:18.075Z,1010.02
2023-02-11T12:12:19.830Z,1010.05
2023-02-11T12:13:21.556Z,1010.06
2023-02-11T12:14:23.330Z,1010.05
2023-02-11T12:15:25.007Z,1010.02
2023-02-11T12:16:26.826Z,1009.99
2023-02-11T12:17:28.504Z,1010.03
2023-02-11T12:18:30.206Z,1010.02
2023-02-11T12:19:31.958Z,1010.01
2023-02-11T12:20:33.742Z,1010.02
2023-02-11T12:21:35.404Z,1009.97
2023-02-11T12:22:37.133Z,1010.04
2023-02-11T12:23:38.876Z,1010.02
2023-02-11T12:24:40.612Z,1010.08
2023-02-11T12:25:42.370Z,1010.06
2023-02-11T12:26:44.076Z,1010.07
2023-02-11T12:27:45.816Z,1010.09
2023-02-11T12:28:47.546Z,1010.05
2023-02-11T12:29:49.300Z,1010.12
2023-02-11T12:30:51.364Z,1010.09
2023-02-11T12:31:52.862Z,1010.08